createdAt,value
2019-05-01T00:02:47.831Z,70.14
2019-05-01T00:05:26.094Z,70.62
2019-05-01T00:07:56.802Z,70.46
2019-05-01T00:10:28.783Z,70.41
2019-05-01T00:12:59.457Z,70.50
2019-05-01T00:15:32.488Z,70.44
2019-05-01T00:18:02.817Z,70.74
2019-05-01T00:20:33.534Z,70.94
2019-05-01T00:23:03.819Z,70.94
2019-05-01T00:25:34.551Z,71.02
2019-05-01T00:28:05.030Z,71.26
2019-05-01T00:30:36.061Z,71.89
2019-05-01T00:33:06.523Z,72.37
2019-05-01T00:35:36.728Z,72.43
2019-05-01T00:38:06.993Z,72.47
2019-05-01T00:40:37.640Z,72.72
2019-05-01T00:43:07.935Z,72.66
2019-05-01T00:45:38.282Z,72.51
2019-05-01T00:48:08.581Z,72.63
2019-05-01T00:50:38.913Z,72.68
2019-05-01T00:53:09.565Z,73.12
2019-05-01T00:55:50.242Z,72.97
2019-05-01T00:58:34.233Z,72.96
2019-05-01T01:01:21.538Z,72.90
2019-05-01T01:03:52.312Z,73.02
2019-05-01T01:06:22.694Z,73.02
2019-05-01T01:08:53.006Z,73.33
2019-05-01T01:11:23.592Z,73.42
2019-05-01T01:13:54.027Z,73.51
2019-05-01T01:16:24.320Z,73.76
2019-05-01T01:18:55.045Z,73.90
2019-05-01T01:21:25.743Z,73.98
2019-05-01T01:23:56.920Z,73.82
2019-05-01T01:26:28.002Z,74.19
2019-05-01T01:28:58.324Z,74.32
2019-05-01T01:31:28.703Z,74.44
2019-05-01T01:34:31.932Z,74.64
2019-05-01T01:37:02.705Z,74.80
2019-05-01T01:39:33.158Z,74.81
2019-05-01T01:42:03.947Z,74.65
2019-05-01T01:45:02.485Z,74.68
2019-05-01T01:47:33.156Z,74.20
2019-05-01T01:50:03.508Z,74.37
2019-05-01T01:52:34.152Z,74.08
2019-05-01T01:55:04.666Z,74.41
2019-05-01T01:57:35.101Z,74.69
2019-05-01T02:00:07.943Z,74.68
2019-05-01T02:02:49.976Z,74.77
2019-05-01T02:05:24.200Z,75.40
2019-05-01T02:07:54.679Z,75.39
2019-05-01T02:10:25.216Z,75.47
2019-05-01T02:12:55.611Z,75.90
2019-05-01T02:15:25.969Z,75.90
2019-05-01T02:17:56.631Z,76.12
2019-05-01T02:20:27.036Z,75.96
2019-05-01T02:22:57.700Z,76.23
2019-05-01T02:25:29.483Z,76.27
2019-05-01T02:28:33.597Z,76.30
2019-05-01T02:31:29.285Z,76.22
2019-05-01T02:33:57.464Z,76.65
2019-05-01T02:36:29.859Z,76.63
2019-05-01T02:39:01.675Z,76.98
2019-05-01T02:41:36.182Z,77.21
2019-05-01T02:44:34.590Z,77.02
2019-05-01T02:47:09.204Z,77.63
2019-05-01T02:49:52.169Z,77.84
2019-05-01T02:52:26.666Z,78.24
2019-05-01T02:55:02.431Z,78.95
2019-05-01T02:57:34.754Z,78.71
2019-05-01T03:00:06.547Z,78.96
2019-05-01T03:02:39.051Z,79.04
2019-05-01T03:05:10.288Z,79.35
2019-05-01T03:07:42.095Z,79.52
2019-05-01T03:10:13.056Z,79.48
2019-05-01T03:12:46.045Z,79.67
2019-05-01T03:15:17.197Z,79.43
2019-05-01T03:18:10.365Z,79.48
2019-05-01T03:20:56.351Z,79.52
2019-05-01T03:23:51.944Z,79.56
2019-05-01T03:26:22.956Z,79.67
2019-05-01T03:28:53.468Z,79.08
2019-05-01T03:31:23.948Z,80.24
2019-05-01T03:33:54.829Z,80.38
2019-05-01T03:36:25.521Z,81.42
2019-05-01T03:38:56.070Z,81.17
2019-05-01T03:41:26.645Z,81.44
2019-05-01T03:43:57.791Z,81.82
2019-05-01T03:46:28.347Z,82.09
2019-05-01T03:48:58.753Z,82.32
2019-05-01T03:51:29.328Z,82.69
2019-05-01T03:53:59.888Z,82.35
2019-05-01T03:56:31.084Z,82.86
2019-05-01T03:59:01.879Z,82.03
2019-05-01T04:02:00.478Z,82.29
2019-05-01T04:04:31.916Z,82.09
2019-05-01T04:07:02.757Z,82.33
2019-05-01T04:09:33.172Z,82.69
2019-05-01T04:12:04.583Z,82.30
2019-05-01T04:14:38.921Z,81.89
2019-05-01T04:17:32.332Z,82.03
2019-05-01T04:20:03.412Z,82.24
2019-05-01T04:22:34.400Z,82.31
2019-05-01T04:25:06.296Z,81.38
2019-05-01T04:27:39.465Z,81.95
2019-05-01T04:30:20.287Z,81.89
2019-05-01T04:32:54.340Z,81.88
2019-05-01T04:35:43.810Z,81.80
2019-05-01T04:38:14.510Z,81.83
2019-05-01T04:40:45.868Z,81.78
2019-05-01T04:43:16.214Z,81.61
2019-05-01T04:45:46.980Z,81.61
2019-05-01T04:48:17.358Z,81.12
2019-05-01T04:50:48.076Z,80.94
2019-05-01T04:53:19.547Z,80.70
2019-05-01T04:55:50.550Z,80.60
2019-05-01T04:58:20.839Z,80.25
2019-05-01T05:00:51.812Z,80.00
2019-05-01T05:03:24.574Z,79.03
2019-05-01T05:05:55.062Z,78.83
2019-05-01T05:08:25.667Z,78.33
2019-05-01T05:10:58.943Z,77.97
2019-05-01T05:13:35.299Z,77.62
2019-05-01T05:16:16.097Z,77.14
2019-05-01T05:18:46.764Z,77.57
2019-05-01T05:21:17.558Z,77.62
2019-05-01T05:23:48.129Z,76.99
2019-05-01T05:26:19.653Z,76.55
2019-05-01T05:28:51.922Z,77.03
2019-05-01T05:31:24.898Z,76.52
2019-05-01T05:33:57.797Z,77.04
2019-05-01T05:36:29.765Z,75.94
2019-05-01T05:39:09.261Z,74.49
2019-05-01T05:41:40.130Z,73.50
2019-05-01T05:44:10.564Z,74.51
2019-05-01T05:46:42.032Z,74.51
2019-05-01T05:49:12.916Z,74.36
2019-05-01T05:51:52.040Z,74.15
2019-05-01T05:54:41.992Z,73.58
2019-05-01T05:57:20.532Z,73.35
2019-05-01T05:59:55.873Z,75.06
2019-05-01T06:02:42.162Z,73.37
2019-05-01T06:05:22.630Z,73.34
2019-05-01T06:08:11.570Z,73.32
2019-05-01T06:10:58.580Z,72.88
2019-05-01T06:13:47.709Z,73.76
2019-05-01T06:16:34.805Z,73.57
2019-05-01T06:19:19.257Z,71.99
2019-05-01T06:22:10.113Z,70.23
2019-05-01T06:24:45.065Z,71.52
2019-05-01T06:27:16.451Z,70.74
2019-05-01T06:29:50.436Z,68.54
2019-05-01T06:32:20.875Z,67.67
2019-05-01T06:34:51.964Z,66.93
2019-05-01T06:37:25.336Z,66.19
2019-05-01T06:39:55.168Z,65.99
2019-05-01T06:42:26.003Z,65.89
2019-05-01T06:45:02.672Z,63.16
2019-05-01T06:47:48.446Z,62.39
2019-05-01T06:50:36.977Z,62.65
2019-05-01T06:53:07.556Z,61.41
2019-05-01T06:55:39.317Z,59.88
2019-05-01T06:58:09.712Z,58.94
2019-05-01T07:00:43.023Z,59.88
2019-05-01T07:03:14.566Z,59.76
2019-05-01T07:05:48.983Z,59.24
2019-05-01T07:10:50.277Z,58.06
2019-05-01T07:13:21.095Z,58.32
2019-05-01T07:15:51.484Z,57.77
2019-05-01T07:18:23.721Z,57.09
2019-05-01T07:20:54.426Z,57.71
2019-05-01T07:23:25.560Z,56.15
2019-05-01T07:25:58.688Z,55.35
2019-05-01T07:28:34.184Z,54.18
2019-05-01T07:31:06.319Z,54.05
2019-05-01T07:33:36.921Z,53.71
2019-05-01T07:36:14.998Z,53.29
2019-05-01T07:38:40.568Z,52.27
2019-05-01T07:41:12.492Z,52.20
2019-05-01T07:43:54.911Z,52.25
2019-05-01T07:46:48.912Z,52.33
2019-05-01T07:49:17.638Z,50.90
2019-05-01T07:51:53.432Z,50.85
2019-05-01T07:54:24.356Z,49.68
2019-05-01T07:56:58.749Z,49.00
2019-05-01T07:59:28.651Z,48.27
2019-05-01T08:02:02.625Z,48.31
2019-05-01T08:04:36.632Z,48.18
2019-05-01T08:07:05.814Z,47.84
2019-05-01T08:09:36.499Z,47.36
2019-05-01T08:12:07.356Z,49.76
2019-05-01T08:14:38.070Z,49.33
2019-05-01T08:17:12.912Z,48.34
2019-05-01T08:19:52.356Z,46.15
2019-05-01T08:22:25.255Z,44.91
2019-05-01T08:24:58.818Z,45.65
2019-05-01T08:27:40.174Z,45.32
2019-05-01T08:30:32.007Z,44.27
2019-05-01T08:33:14.557Z,47.28
2019-05-01T08:35:45.532Z,46.31
2019-05-01T08:38:15.916Z,47.75
2019-05-01T08:40:46.355Z,48.21
2019-05-01T08:43:18.116Z,46.90
2019-05-01T08:46:11.896Z,47.03
2019-05-01T08:49:15.547Z,45.23
2019-05-01T08:51:46.333Z,45.90
2019-05-01T08:54:16.800Z,43.49
2019-05-01T08:56:47.253Z,46.19
2019-05-01T08:59:19.446Z,47.13
2019-05-01T09:02:00.880Z,45.02
2019-05-01T09:04:25.213Z,45.67
2019-05-01T09:06:54.405Z,43.12
2019-05-01T09:09:24.916Z,45.25
2019-05-01T09:11:56.037Z,44.45
2019-05-01T09:14:29.942Z,45.29
2019-05-01T09:16:59.477Z,46.49
2019-05-01T09:19:29.917Z,46.11
2019-05-01T09:22:00.391Z,45.37
2019-05-01T09:24:31.339Z,44.86
2019-05-01T09:27:12.344Z,44.40
2019-05-01T09:29:46.799Z,41.77
2019-05-01T09:32:18.787Z,44.49
2019-05-01T09:34:49.676Z,41.98
2019-05-01T09:37:20.181Z,44.38
2019-05-01T09:39:50.831Z,41.87
2019-05-01T09:42:23.716Z,40.38
2019-05-01T09:44:54.092Z,38.92
2019-05-01T09:47:25.694Z,41.50
2019-05-01T09:49:56.942Z,39.59
2019-05-01T09:52:46.240Z,40.27
2019-05-01T09:55:47.653Z,37.85
2019-05-01T09:58:18.058Z,36.60
2019-05-01T10:00:52.751Z,35.66
2019-05-01T10:03:23.376Z,35.43
2019-05-01T10:05:54.026Z,35.37
2019-05-01T10:08:24.729Z,35.61
2019-05-01T10:10:55.191Z,36.05
2019-05-01T10:13:25.757Z,34.47
2019-05-01T10:15:56.425Z,35.08
2019-05-01T10:18:27.297Z,33.59
2019-05-01T10:20:58.359Z,30.71
2019-05-01T10:23:29.062Z,29.49
2019-05-01T10:26:01.110Z,27.63
2019-05-01T10:28:37.814Z,28.32
2019-05-01T10:31:21.113Z,27.09
2019-05-01T10:33:52.350Z,27.56
2019-05-01T10:36:35.911Z,26.82
2019-05-01T10:39:08.606Z,28.98
2019-05-01T10:41:41.086Z,26.81
2019-05-01T10:44:11.759Z,24.37
2019-05-01T10:46:42.233Z,28.47
2019-05-01T10:49:12.674Z,27.18
2019-05-01T10:51:43.263Z,27.63
2019-05-01T10:54:14.032Z,25.13
2019-05-01T10:56:44.372Z,24.49
2019-05-01T10:59:14.810Z,24.16
2019-05-01T11:01:51.982Z,23.53
2019-05-01T11:04:22.417Z,24.70
2019-05-01T11:06:52.825Z,26.66
2019-05-01T11:09:23.193Z,28.45
2019-05-01T11:11:53.971Z,26.75
2019-05-01T11:14:24.350Z,26.32
2019-05-01T11:16:54.797Z,27.11
2019-05-01T11:19:25.780Z,25.68
2019-05-01T11:21:56.516Z,25.74
2019-05-01T11:24:26.956Z,25.95
2019-05-01T11:26:57.305Z,27.07
2019-05-01T11:29:29.583Z,27.14
2019-05-01T11:32:16.908Z,28.77
2019-05-01T11:35:21.659Z,28.92
2019-05-01T11:38:07.829Z,30.30
2019-05-01T11:40:40.745Z,29.22
2019-05-01T11:43:11.191Z,30.73
2019-05-01T11:45:41.649Z,28.65
2019-05-01T11:48:12.292Z,30.51
2019-05-01T11:50:42.702Z,29.51
2019-05-01T11:53:13.124Z,29.15
2019-05-01T11:55:44.327Z,27.92
2019-05-01T11:58:15.193Z,29.09
2019-05-01T12:03:12.114Z,29.61
2019-05-01T12:05:42.439Z,27.09
2019-05-01T12:08:12.802Z,29.21
2019-05-01T12:10:43.199Z,29.03
2019-05-01T12:13:13.462Z,28.94
2019-05-01T12:15:45.519Z,29.09
2019-05-01T12:18:15.923Z,29.05
2019-05-01T12:20:46.356Z,29.06
2019-05-01T12:23:16.731Z,29.56
2019-05-01T12:25:47.028Z,29.54
2019-05-01T12:28:17.401Z,29.71
2019-05-01T12:30:48.006Z,29.55
2019-05-01T12:42:19.590Z,20.33
2019-05-01T12:44:51.910Z,21.80
2019-05-01T12:47:50.242Z,22.96
2019-05-01T12:50:25.846Z,22.67
2019-05-01T12:53:18.932Z,25.01
2019-05-01T12:56:16.410Z,22.73
2019-05-01T12:58:51.241Z,24.02
2019-05-01T13:01:31.770Z,23.29
2019-05-01T13:04:08.898Z,23.45
2019-05-01T13:15:51.575Z,25.50
2019-05-01T13:18:22.138Z,24.74
2019-05-01T13:20:52.660Z,23.25
2019-05-01T13:23:25.367Z,22.79
2019-05-01T13:25:59.138Z,22.42
2019-05-01T13:28:54.617Z,21.84
2019-05-01T13:31:53.003Z,24.36
2019-05-01T13:34:23.582Z,24.41
2019-05-01T13:37:02.897Z,25.34
2019-05-01T13:39:27.300Z,24.07
2019-05-01T13:41:57.852Z,22.84
2019-05-01T13:44:30.974Z,24.62
2019-05-01T13:47:01.642Z,23.75
2019-05-01T13:49:32.169Z,22.67
2019-05-01T13:52:02.803Z,21.88
2019-05-01T13:54:33.222Z,22.59
2019-05-01T13:57:03.680Z,23.05
2019-05-01T13:59:34.288Z,23.19
2019-05-01T14:02:04.840Z,23.93
2019-05-01T14:04:36.137Z,23.67
2019-05-01T14:07:16.345Z,24.27
2019-05-01T14:09:39.441Z,24.83
2019-05-01T14:12:10.170Z,23.79
2019-05-01T14:15:29.846Z,24.60
2019-05-01T14:18:00.429Z,23.93
2019-05-01T14:20:48.614Z,24.35
2019-05-01T14:23:36.744Z,23.81
2019-05-01T14:26:13.157Z,23.99
2019-05-01T14:28:43.885Z,23.75
2019-05-01T14:31:14.445Z,21.42
2019-05-01T14:33:44.930Z,22.08
2019-05-01T14:36:15.738Z,23.71
2019-05-01T14:38:46.323Z,23.13
2019-05-01T14:41:16.894Z,22.93
2019-05-01T14:43:49.515Z,23.29
2019-05-01T14:46:20.216Z,23.92
2019-05-01T14:48:50.803Z,23.96
2019-05-01T14:51:21.950Z,23.00
2019-05-01T14:53:52.713Z,24.66
2019-05-01T14:56:23.296Z,23.05
2019-05-01T14:58:53.967Z,24.07
2019-05-01T15:01:24.484Z,22.84
2019-05-01T15:03:55.096Z,23.37
2019-05-01T15:06:25.947Z,23.32
2019-05-01T15:08:58.525Z,22.63
2019-05-01T15:11:29.464Z,22.53
2019-05-01T15:14:06.526Z,23.44
2019-05-01T15:16:48.820Z,23.45
2019-05-01T15:19:21.920Z,24.47
2019-05-01T15:21:52.956Z,23.76
2019-05-01T15:24:23.755Z,23.04
2019-05-01T15:26:54.274Z,22.42
2019-05-01T15:29:24.782Z,22.17
2019-05-01T15:31:55.407Z,21.43
2019-05-01T15:34:25.850Z,24.17
2019-05-01T15:36:56.546Z,25.09
2019-05-01T15:39:40.972Z,25.13
2019-05-01T15:42:29.191Z,25.93
2019-05-01T15:44:59.753Z,26.34
2019-05-01T15:47:37.675Z,25.05
2019-05-01T15:50:11.205Z,26.50
2019-05-01T15:52:40.655Z,23.90
2019-05-01T15:55:11.359Z,23.91
2019-05-01T15:57:42.021Z,25.00
2019-05-01T16:00:17.106Z,25.10
2019-05-01T16:02:47.971Z,22.67
2019-05-01T16:05:18.559Z,25.11
2019-05-01T16:07:49.067Z,23.47
2019-05-01T16:10:23.582Z,25.29
2019-05-01T16:12:58.579Z,25.25
2019-05-01T16:15:33.838Z,24.62
2019-05-01T16:18:05.373Z,23.18
2019-05-01T16:21:09.515Z,24.70
2019-05-01T16:23:50.958Z,24.55
2019-05-01T16:26:21.749Z,23.46
2019-05-01T16:28:52.561Z,22.74
2019-05-01T16:31:23.121Z,23.55
2019-05-01T16:33:53.653Z,22.06
2019-05-01T16:36:24.334Z,25.31
2019-05-01T16:39:07.619Z,25.53
2019-05-01T16:41:38.202Z,26.78
2019-05-01T16:46:38.228Z,27.67
2019-05-01T16:49:09.116Z,28.52
2019-05-01T16:51:41.572Z,29.70
2019-05-01T16:54:11.977Z,31.52
2019-05-01T16:56:51.060Z,32.39
2019-05-01T16:59:22.824Z,32.14
2019-05-01T17:02:04.085Z,31.82
2019-05-01T17:04:52.950Z,32.23
2019-05-01T17:07:30.456Z,32.40
2019-05-01T17:10:25.777Z,32.10
2019-05-01T17:12:56.689Z,31.92
2019-05-01T17:15:34.824Z,31.89
2019-05-01T17:18:05.427Z,31.78
2019-05-01T17:20:36.066Z,32.21
2019-05-01T17:23:06.784Z,30.91
2019-05-01T17:25:37.630Z,31.05
2019-05-01T17:28:09.443Z,32.29
2019-05-01T17:30:50.951Z,31.97
2019-05-01T17:33:23.905Z,32.45
2019-05-01T17:35:54.382Z,32.54
2019-05-01T17:38:25.904Z,32.10
2019-05-01T17:40:56.476Z,31.77
2019-05-01T17:43:29.671Z,28.50
2019-05-01T17:46:05.969Z,28.95
2019-05-01T17:48:34.917Z,30.75
2019-05-01T17:51:05.577Z,31.11
2019-05-01T17:53:36.259Z,31.50
2019-05-01T17:56:14.718Z,31.20
2019-05-01T17:58:42.986Z,31.04
2019-05-01T18:01:33.062Z,33.15
2019-05-01T18:04:19.665Z,33.90
2019-05-01T18:06:51.920Z,33.71
2019-05-01T18:09:22.471Z,35.23
2019-05-01T18:11:53.728Z,34.91
2019-05-01T18:14:24.428Z,34.15
2019-05-01T18:16:54.889Z,34.29
2019-05-01T18:19:25.719Z,35.41
2019-05-01T18:22:09.649Z,35.63
2019-05-01T18:25:09.157Z,36.08
2019-05-01T18:28:03.244Z,36.68
2019-05-01T18:30:39.484Z,37.57
2019-05-01T18:33:10.737Z,38.39
2019-05-01T18:35:44.895Z,38.99
2019-05-01T18:38:32.144Z,39.56
2019-05-01T18:41:18.212Z,40.26
2019-05-01T18:43:48.894Z,41.19
2019-05-01T18:46:19.875Z,43.03
2019-05-01T18:48:50.671Z,43.80
2019-05-01T18:51:21.662Z,44.73
2019-05-01T18:54:02.705Z,45.60
2019-05-01T18:56:41.435Z,46.79
2019-05-01T18:59:12.217Z,46.81
2019-05-01T19:01:48.527Z,45.40
2019-05-01T19:04:18.352Z,45.99
2019-05-01T19:06:49.980Z,47.28
2019-05-01T19:09:29.766Z,47.42
2019-05-01T19:11:57.543Z,47.61
2019-05-01T19:14:30.649Z,47.87
2019-05-01T19:17:01.253Z,47.52
2019-05-01T19:19:35.240Z,46.91
2019-05-01T19:22:09.648Z,47.56
2019-05-01T19:24:40.304Z,46.63
2019-05-01T19:27:14.258Z,45.40
2019-05-01T19:29:52.958Z,45.98
2019-05-01T19:32:24.330Z,46.93
2019-05-01T19:34:55.071Z,46.54
2019-05-01T19:37:28.208Z,46.74
2019-05-01T19:39:58.382Z,47.32
2019-05-01T19:42:29.114Z,48.93
2019-05-01T19:44:59.962Z,47.82
2019-05-01T19:47:30.997Z,48.64
2019-05-01T19:50:07.508Z,51.03
2019-05-01T19:52:40.446Z,51.68
2019-05-01T19:55:11.444Z,52.96
2019-05-01T19:57:42.121Z,52.97
2019-05-01T20:00:13.677Z,53.11
2019-05-01T20:02:44.453Z,52.51
2019-05-01T20:05:15.074Z,52.34
2019-05-01T20:07:45.910Z,49.83
2019-05-01T20:10:18.331Z,49.22
2019-05-01T20:12:48.785Z,50.06
2019-05-01T20:15:24.487Z,49.11
2019-05-01T20:17:52.332Z,50.62
2019-05-01T20:20:22.877Z,50.52
2019-05-01T20:22:55.329Z,50.55
2019-05-01T20:25:25.680Z,48.94
2019-05-01T20:27:57.357Z,49.17
2019-05-01T20:30:28.047Z,48.88
2019-05-01T20:33:02.262Z,48.85
2019-05-01T20:35:34.144Z,48.63
2019-05-01T20:38:03.467Z,48.52
2019-05-01T20:40:34.352Z,48.72
2019-05-01T20:43:15.778Z,49.04
2019-05-01T20:45:57.944Z,48.92
2019-05-01T20:48:28.491Z,49.88
2019-05-01T20:51:05.145Z,51.16
2019-05-01T20:53:35.962Z,51.99
2019-05-01T20:56:14.098Z,51.70
2019-05-01T20:58:45.510Z,52.72
2019-05-01T21:01:17.481Z,52.96
2019-05-01T21:04:13.464Z,52.84
2019-05-01T21:06:47.235Z,52.58
2019-05-01T21:09:21.255Z,53.50
2019-05-01T21:12:05.116Z,55.14
2019-05-01T21:14:28.823Z,54.52
2019-05-01T21:16:59.822Z,54.33
2019-05-01T21:19:33.002Z,55.84
2019-05-01T21:22:04.034Z,55.03
2019-05-01T21:24:35.650Z,54.54
2019-05-01T21:27:06.580Z,55.21
2019-05-01T21:29:37.525Z,55.21
2019-05-01T21:32:08.517Z,56.32
2019-05-01T21:34:38.999Z,57.45
2019-05-01T21:37:09.738Z,57.75
2019-05-01T21:39:49.404Z,58.61
2019-05-01T21:42:19.892Z,58.99
2019-05-01T21:44:50.356Z,59.57
2019-05-01T21:47:23.524Z,59.72
2019-05-01T21:49:53.598Z,60.01
2019-05-01T21:52:26.845Z,60.41
2019-05-01T21:54:57.332Z,61.53
2019-05-01T21:57:32.269Z,62.70
2019-05-01T22:00:00.381Z,63.86
2019-05-01T22:02:31.298Z,64.02
2019-05-01T22:05:03.747Z,63.13
2019-05-01T22:07:34.074Z,63.49
2019-05-01T22:10:04.687Z,64.24
2019-05-01T22:12:35.332Z,63.45
2019-05-01T22:15:18.882Z,63.36
2019-05-01T22:18:20.349Z,63.69
2019-05-01T22:20:59.841Z,63.06
2019-05-01T22:23:32.309Z,61.91
2019-05-01T22:26:03.107Z,61.70
2019-05-01T22:28:50.124Z,61.29
2019-05-01T22:31:41.631Z,58.00
2019-05-01T22:34:27.707Z,58.63
2019-05-01T22:36:58.500Z,59.59
2019-05-01T22:39:30.901Z,62.32
2019-05-01T22:42:01.298Z,63.01
2019-05-01T22:44:32.167Z,63.79
2019-05-01T22:47:02.696Z,64.03
2019-05-01T22:49:33.177Z,62.44
2019-05-01T22:52:04.202Z,64.29
2019-05-01T22:54:37.722Z,64.07
2019-05-01T22:57:13.973Z,64.77
2019-05-01T22:59:44.509Z,65.23
2019-05-01T23:02:24.151Z,64.55
2019-05-01T23:04:56.099Z,64.69
2019-05-01T23:07:27.282Z,63.66
2019-05-01T23:09:59.264Z,63.31
2019-05-01T23:12:30.207Z,61.52
2019-05-01T23:15:00.625Z,60.62
2019-05-01T23:17:39.589Z,61.05
2019-05-01T23:20:10.122Z,61.36
2019-05-01T23:22:40.603Z,61.29
2019-05-01T23:25:11.449Z,61.44
2019-05-01T23:27:42.104Z,61.84
2019-05-01T23:30:15.728Z,62.69
2019-05-01T23:32:47.319Z,63.04
2019-05-01T23:35:17.771Z,63.94
2019-05-01T23:37:48.205Z,64.91
2019-05-01T23:40:19.170Z,65.11
2019-05-01T23:42:52.820Z,64.86
2019-05-01T23:45:24.810Z,65.05
2019-05-01T23:47:55.331Z,65.17
2019-05-01T23:50:25.758Z,66.02
2019-05-01T23:52:56.539Z,67.75
2019-05-01T23:55:27.016Z,68.01
2019-05-01T23:57:57.494Z,68.46
